sensor_id;sensor_type;location;lat;lon;timestamp;P1;durP1;ratioP1;P2;durP2;ratioP2
34317;SDS011;20582;52.196;20.952;2023-05-14T00:01:15;15.15;;;8.40;;
34317;SDS011;20582;52.196;20.952;2023-05-14T00:03:41;16.35;;;8.60;;
34317;SDS011;20582;52.196;20.952;2023-05-14T00:06:08;15.73;;;8.70;;
34317;SDS011;20582;52.196;20.952;2023-05-14T00:08:35;16.42;;;9.27;;
34317;SDS011;20582;52.196;20.952;2023-05-14T00:11:01;14.70;;;8.90;;
34317;SDS011;20582;52.196;20.952;2023-05-14T00:13:27;15.68;;;8.93;;
34317;SDS011;20582;52.196;20.952;2023-05-14T00:15:53;16.73;;;9.50;;
34317;SDS011;20582;52.196;20.952;2023-05-14T00:18:19;14.32;;;9.25;;
34317;SDS011;20582;52.196;20.952;2023-05-14T00:20:45;15.57;;;9.35;;
34317;SDS011;20582;52.196;20.952;2023-05-14T00:23:11;16.80;;;9.10;;
34317;SDS011;20582;52.196;20.952;2023-05-14T00:25:37;13.98;;;8.80;;
34317;SDS011;20582;52.196;20.952;2023-05-14T00:28:03;18.63;;;9.60;;
34317;SDS011;20582;52.196;20.952;2023-05-14T00:30:29;15.90;;;9.60;;
34317;SDS011;20582;52.196;20.952;2023-05-14T00:32:55;17.85;;;8.77;;
34317;SDS011;20582;52.196;20.952;2023-05-14T00:35:21;16.27;;;9.13;;
34317;SDS011;20582;52.196;20.952;2023-05-14T00:37:47;14.13;;;9.48;;
34317;SDS011;20582;52.196;20.952;2023-05-14T00:40:13;15.85;;;9.27;;
34317;SDS011;20582;52.196;20.952;2023-05-14T00:42:39;16.67;;;8.80;;
34317;SDS011;20582;52.196;20.952;2023-05-14T00:45:05;16.77;;;9.13;;
34317;SDS011;20582;52.196;20.952;2023-05-14T00:47:32;18.35;;;9.45;;
34317;SDS011;20582;52.196;20.952;2023-05-14T00:49:59;16.08;;;9.35;;
34317;SDS011;20582;52.196;20.952;2023-05-14T00:52:25;18.00;;;9.25;;
34317;SDS011;20582;52.196;20.952;2023-05-14T00:54:51;15.32;;;9.40;;
34317;SDS011;20582;52.196;20.952;2023-05-14T00:57:17;15.13;;;9.05;;
34317;SDS011;20582;52.196;20.952;2023-05-14T00:59:43;16.85;;;9.25;;
34317;SDS011;20582;52.196;20.952;2023-05-14T01:02:09;16.85;;;9.43;;
34317;SDS011;20582;52.196;20.952;2023-05-14T01:04:35;15.38;;;9.23;;
34317;SDS011;20582;52.196;20.952;2023-05-14T01:15:06;16.00;;;9.63;;
34317;SDS011;20582;52.196;20.952;2023-05-14T01:17:37;15.90;;;8.82;;
34317;SDS011;20582;52.196;20.952;2023-05-14T01:20:03;20.20;;;9.38;;
34317;SDS011;20582;52.196;20.952;2023-05-14T01:22:30;13.90;;;8.90;;
34317;SDS011;20582;52.196;20.952;2023-05-14T01:24:55;16.08;;;9.10;;
34317;SDS011;20582;52.196;20.952;2023-05-14T01:29:57;16.33;;;9.45;;
34317;SDS011;20582;52.196;20.952;2023-05-14T01:32:24;14.15;;;9.63;;
34317;SDS011;20582;52.196;20.952;2023-05-14T01:34:50;16.10;;;10.25;;
34317;SDS011;20582;52.196;20.952;2023-05-14T01:37:16;14.98;;;9.45;;
34317;SDS011;20582;52.196;20.952;2023-05-14T01:39:42;17.35;;;10.18;;
34317;SDS011;20582;52.196;20.952;2023-05-14T01:42:08;14.02;;;9.65;;
34317;SDS011;20582;52.196;20.952;2023-05-14T01:44:34;16.65;;;10.15;;
34317;SDS011;20582;52.196;20.952;2023-05-14T01:47:01;16.13;;;9.75;;
34317;SDS011;20582;52.196;20.952;2023-05-14T01:49:27;18.65;;;10.38;;
34317;SDS011;20582;52.196;20.952;2023-05-14T01:51:53;18.33;;;10.68;;
34317;SDS011;20582;52.196;20.952;2023-05-14T01:54:19;15.27;;;9.80;;
34317;SDS011;20582;52.196;20.952;2023-05-14T01:56:45;17.42;;;10.98;;
34317;SDS011;20582;52.196;20.952;2023-05-14T01:59:11;16.50;;;10.32;;
34317;SDS011;20582;52.196;20.952;2023-05-14T02:01:37;16.30;;;10.63;;
34317;SDS011;20582;52.196;20.952;2023-05-14T02:04:03;19.77;;;10.95;;
34317;SDS011;20582;52.196;20.952;2023-05-14T02:06:29;21.10;;;11.52;;
34317;SDS011;20582;52.196;20.952;2023-05-14T02:08:56;16.73;;;10.95;;
34317;SDS011;20582;52.196;20.952;2023-05-14T02:11:22;16.83;;;11.15;;
34317;SDS011;20582;52.196;20.952;2023-05-14T02:13:48;18.67;;;11.35;;
34317;SDS011;20582;52.196;20.952;2023-05-14T02:16:14;21.95;;;11.70;;
34317;SDS011;20582;52.196;20.952;2023-05-14T02:18:40;20.23;;;11.73;;
34317;SDS011;20582;52.196;20.952;2023-05-14T02:21:06;19.88;;;11.65;;
34317;SDS011;20582;52.196;20.952;2023-05-14T02:23:32;19.42;;;12.23;;
34317;SDS011;20582;52.196;20.952;2023-05-14T02:25:58;21.05;;;12.52;;
34317;SDS011;20582;52.196;20.952;2023-05-14T02:28:24;18.88;;;11.85;;
34317;SDS011;20582;52.196;20.952;2023-05-14T02:30:49;19.35;;;12.35;;
34317;SDS011;20582;52.196;20.952;2023-05-14T02:33:15;18.38;;;11.88;;
34317;SDS011;20582;52.196;20.952;2023-05-14T02:35:42;18.35;;;12.45;;
34317;SDS011;20582;52.196;20.952;2023-05-14T02:38:08;17.98;;;11.50;;
34317;SDS011;20582;52.196;20.952;2023-05-14T02:40:35;22.08;;;12.38;;
34317;SDS011;20582;52.196;20.952;2023-05-14T02:43:01;19.75;;;12.05;;
34317;SDS011;20582;52.196;20.952;2023-05-14T02:45:27;20.58;;;12.18;;
34317;SDS011;20582;52.196;20.952;2023-05-14T02:47:53;19.83;;;13.00;;
34317;SDS011;20582;52.196;20.952;2023-05-14T02:50:19;25.73;;;14.15;;
34317;SDS011;20582;52.196;20.952;2023-05-14T02:52:45;21.40;;;13.57;;
34317;SDS011;20582;52.196;20.952;2023-05-14T02:55:11;23.10;;;14.63;;
34317;SDS011;20582;52.196;20.952;2023-05-14T02:57:37;24.33;;;15.10;;
34317;SDS011;20582;52.196;20.952;2023-05-14T03:00:03;21.73;;;14.40;;
34317;SDS011;20582;52.196;20.952;2023-05-14T03:02:29;25.38;;;15.25;;
34317;SDS011;20582;52.196;20.952;2023-05-14T03:04:55;27.67;;;15.25;;
34317;SDS011;20582;52.196;20.952;2023-05-14T03:07:21;26.02;;;15.63;;
34317;SDS011;20582;52.196;20.952;2023-05-14T03:09:47;22.48;;;16.00;;
34317;SDS011;20582;52.196;20.952;2023-05-14T03:12:13;23.38;;;15.80;;
34317;SDS011;20582;52.196;20.952;2023-05-14T03:14:39;24.25;;;15.80;;
34317;SDS011;20582;52.196;20.952;2023-05-14T03:17:05;29.85;;;18.02;;
34317;SDS011;20582;52.196;20.952;2023-05-14T03:19:31;29.92;;;17.98;;
34317;SDS011;20582;52.196;20.952;2023-05-14T03:21:57;29.05;;;18.30;;
34317;SDS011;20582;52.196;20.952;2023-05-14T03:24:23;28.92;;;17.83;;
34317;SDS011;20582;52.196;20.952;2023-05-14T03:26:49;26.90;;;17.65;;
34317;SDS011;20582;52.196;20.952;2023-05-14T03:29:15;28.15;;;17.85;;
34317;SDS011;20582;52.196;20.952;2023-05-14T03:31:42;28.15;;;17.63;;
34317;SDS011;20582;52.196;20.952;2023-05-14T03:34:08;25.60;;;16.60;;
34317;SDS011;20582;52.196;20.952;2023-05-14T03:36:34;22.27;;;15.75;;
34317;SDS011;20582;52.196;20.952;2023-05-14T03:39:03;22.92;;;16.05;;
34317;SDS011;20582;52.196;20.952;2023-05-14T03:41:33;25.75;;;16.95;;
34317;SDS011;20582;52.196;20.952;2023-05-14T03:44:00;26.73;;;17.58;;
34317;SDS011;20582;52.196;20.952;2023-05-14T03:46:26;27.38;;;17.33;;
34317;SDS011;20582;52.196;20.952;2023-05-14T03:48:52;29.75;;;16.58;;
34317;SDS011;20582;52.196;20.952;2023-05-14T03:51:18;27.75;;;16.58;;
34317;SDS011;20582;52.196;20.952;2023-05-14T03:53:44;26.63;;;15.60;;
34317;SDS011;20582;52.196;20.952;2023-05-14T03:56:10;28.85;;;15.95;;
34317;SDS011;20582;52.196;20.952;2023-05-14T03:58:36;23.67;;;16.42;;
34317;SDS011;20582;52.196;20.952;2023-05-14T04:01:02;22.77;;;16.00;;
34317;SDS011;20582;52.196;20.952;2023-05-14T04:03:28;24.80;;;15.75;;
34317;SDS011;20582;52.196;20.952;2023-05-14T04:05:54;27.45;;;15.55;;
34317;SDS011;20582;52.196;20.952;2023-05-14T04:08:20;24.55;;;15.43;;
34317;SDS011;20582;52.196;20.952;2023-05-14T04:10:46;28.38;;;16.05;;
34317;SDS011;20582;52.196;20.952;2023-05-14T04:13:12;23.00;;;14.88;;
34317;SDS011;20582;52.196;20.952;2023-05-14T04:15:38;21.08;;;14.20;;
34317;SDS011;20582;52.196;20.952;2023-05-14T04:18:04;26.40;;;15.40;;
34317;SDS011;20582;52.196;20.952;2023-05-14T04:20:30;24.35;;;14.55;;
34317;SDS011;20582;52.196;20.952;2023-05-14T04:22:56;28.33;;;15.05;;
34317;SDS011;20582;52.196;20.952;2023-05-14T04:25:22;21.67;;;14.68;;
34317;SDS011;20582;52.196;20.952;2023-05-14T04:27:48;25.60;;;15.02;;
34317;SDS011;20582;52.196;20.952;2023-05-14T04:30:14;24.35;;;15.45;;
34317;SDS011;20582;52.196;20.952;2023-05-14T04:32:40;25.27;;;15.93;;
34317;SDS011;20582;52.196;20.952;2023-05-14T04:35:06;25.98;;;15.57;;
34317;SDS011;20582;52.196;20.952;2023-05-14T04:37:36;22.57;;;15.03;;
34317;SDS011;20582;52.196;20.952;2023-05-14T04:40:03;22.20;;;14.93;;
34317;SDS011;20582;52.196;20.952;2023-05-14T04:42:29;31.17;;;15.85;;
34317;SDS011;20582;52.196;20.952;2023-05-14T04:44:55;27.48;;;16.17;;
34317;SDS011;20582;52.196;20.952;2023-05-14T04:47:22;24.30;;;15.93;;
34317;SDS011;20582;52.196;20.952;2023-05-14T04:49:48;26.63;;;16.15;;
34317;SDS011;20582;52.196;20.952;2023-05-14T04:52:14;24.30;;;15.80;;
34317;SDS011;20582;52.196;20.952;2023-05-14T04:54:40;26.67;;;15.93;;
34317;SDS011;20582;52.196;20.952;2023-05-14T04:57:06;25.30;;;15.77;;
34317;SDS011;20582;52.196;20.952;2023-05-14T04:59:32;27.05;;;16.70;;
34317;SDS011;20582;52.196;20.952;2023-05-14T05:01:58;27.35;;;16.00;;
34317;SDS011;20582;52.196;20.952;2023-05-14T05:04:24;30.25;;;16.70;;
34317;SDS011;20582;52.196;20.952;2023-05-14T05:06:51;28.33;;;16.23;;
34317;SDS011;20582;52.196;20.952;2023-05-14T05:09:17;27.55;;;16.08;;
34317;SDS011;20582;52.196;20.952;2023-05-14T05:11:43;24.40;;;15.25;;
34317;SDS011;20582;52.196;20.952;2023-05-14T05:14:09;24.52;;;14.90;;
34317;SDS011;20582;52.196;20.952;2023-05-14T05:16:35;28.13;;;15.48;;
34317;SDS011;20582;52.196;20.952;2023-05-14T05:19:01;23.65;;;15.05;;
34317;SDS011;20582;52.196;20.952;2023-05-14T05:21:27;24.13;;;15.30;;
34317;SDS011;20582;52.196;20.952;2023-05-14T05:23:53;23.73;;;14.10;;
34317;SDS011;20582;52.196;20.952;2023-05-14T05:26:19;22.08;;;14.63;;
34317;SDS011;20582;52.196;20.952;2023-05-14T05:28:46;25.35;;;14.18;;
34317;SDS011;20582;52.196;20.952;2023-05-14T05:31:12;22.77;;;14.85;;
34317;SDS011;20582;52.196;20.952;2023-05-14T05:33:38;28.30;;;14.60;;
34317;SDS011;20582;52.196;20.952;2023-05-14T05:36:04;22.38;;;14.50;;
34317;SDS011;20582;52.196;20.952;2023-05-14T05:38:30;23.77;;;15.63;;
34317;SDS011;20582;52.196;20.952;2023-05-14T05:40:56;22.15;;;14.80;;
34317;SDS011;20582;52.196;20.952;2023-05-14T05:43:22;20.55;;;12.95;;
34317;SDS011;20582;52.196;20.952;2023-05-14T05:45:48;22.55;;;13.00;;
34317;SDS011;20582;52.196;20.952;2023-05-14T05:48:14;24.65;;;13.60;;
34317;SDS011;20582;52.196;20.952;2023-05-14T05:50:40;21.75;;;13.05;;
34317;SDS011;20582;52.196;20.952;2023-05-14T05:53:08;23.88;;;13.77;;
34317;SDS011;20582;52.196;20.952;2023-05-14T05:55:34;22.58;;;13.02;;
34317;SDS011;20582;52.196;20.952;2023-05-14T05:58:00;22.45;;;12.85;;
34317;SDS011;20582;52.196;20.952;2023-05-14T06:00:26;18.30;;;12.43;;
34317;SDS011;20582;52.196;20.952;2023-05-14T06:02:52;24.83;;;12.13;;
34317;SDS011;20582;52.196;20.952;2023-05-14T06:05:18;19.00;;;11.73;;
34317;SDS011;20582;52.196;20.952;2023-05-14T06:07:44;21.52;;;12.07;;
34317;SDS011;20582;52.196;20.952;2023-05-14T06:10:10;28.77;;;13.80;;
34317;SDS011;20582;52.196;20.952;2023-05-14T06:12:36;19.25;;;13.30;;
34317;SDS011;20582;52.196;20.952;2023-05-14T06:15:02;20.05;;;12.80;;
34317;SDS011;20582;52.196;20.952;2023-05-14T06:17:28;20.02;;;12.60;;
34317;SDS011;20582;52.196;20.952;2023-05-14T06:19:54;22.15;;;12.98;;
34317;SDS011;20582;52.196;20.952;2023-05-14T06:22:20;19.80;;;12.27;;
34317;SDS011;20582;52.196;20.952;2023-05-14T06:24:47;16.48;;;10.43;;
34317;SDS011;20582;52.196;20.952;2023-05-14T06:27:13;17.73;;;10.73;;
34317;SDS011;20582;52.196;20.952;2023-05-14T06:29:39;18.65;;;11.40;;
34317;SDS011;20582;52.196;20.952;2023-05-14T06:32:05;16.35;;;9.35;;
34317;SDS011;20582;52.196;20.952;2023-05-14T06:34:31;17.08;;;10.02;;
34317;SDS011;20582;52.196;20.952;2023-05-14T06:36:57;15.07;;;8.68;;
34317;SDS011;20582;52.196;20.952;2023-05-14T06:39:23;16.73;;;8.52;;
34317;SDS011;20582;52.196;20.952;2023-05-14T06:41:49;15.52;;;8.55;;
34317;SDS011;20582;52.196;20.952;2023-05-14T06:44:17;19.02;;;8.18;;
34317;SDS011;20582;52.196;20.952;2023-05-14T06:46:43;16.90;;;8.05;;
34317;SDS011;20582;52.196;20.952;2023-05-14T06:49:09;13.88;;;8.00;;
34317;SDS011;20582;52.196;20.952;2023-05-14T06:51:35;13.90;;;7.57;;
34317;SDS011;20582;52.196;20.952;2023-05-14T06:54:02;14.90;;;7.22;;
34317;SDS011;20582;52.196;20.952;2023-05-14T06:56:28;14.10;;;7.28;;
34317;SDS011;20582;52.196;20.952;2023-05-14T06:58:54;15.05;;;6.95;;
34317;SDS011;20582;52.196;20.952;2023-05-14T07:01:20;17.90;;;6.30;;
34317;SDS011;20582;52.196;20.952;2023-05-14T07:03:46;15.57;;;6.40;;
34317;SDS011;20582;52.196;20.952;2023-05-14T07:06:13;15.70;;;6.40;;
34317;SDS011;20582;52.196;20.952;2023-05-14T07:08:39;14.27;;;6.20;;
34317;SDS011;20582;52.196;20.952;2023-05-14T07:11:05;14.45;;;6.68;;
34317;SDS011;20582;52.196;20.952;2023-05-14T07:13:31;12.73;;;6.50;;
34317;SDS011;20582;52.196;20.952;2023-05-14T07:15:56;12.57;;;6.85;;
34317;SDS011;20582;52.196;20.952;2023-05-14T07:18:22;14.70;;;6.85;;
34317;SDS011;20582;52.196;20.952;2023-05-14T07:20:48;14.88;;;7.00;;
34317;SDS011;20582;52.196;20.952;2023-05-14T07:23:14;12.18;;;6.88;;
34317;SDS011;20582;52.196;20.952;2023-05-14T07:25:40;14.02;;;7.68;;
34317;SDS011;20582;52.196;20.952;2023-05-14T07:28:06;13.07;;;6.45;;
34317;SDS011;20582;52.196;20.952;2023-05-14T07:30:32;14.25;;;6.40;;
34317;SDS011;20582;52.196;20.952;2023-05-14T07:32:58;11.00;;;6.28;;
34317;SDS011;20582;52.196;20.952;2023-05-14T07:35:24;13.18;;;6.20;;
34317;SDS011;20582;52.196;20.952;2023-05-14T07:37:50;15.68;;;6.03;;
34317;SDS011;20582;52.196;20.952;2023-05-14T07:40:16;12.77;;;5.78;;
34317;SDS011;20582;52.196;20.952;2023-05-14T07:42:42;13.00;;;6.25;;
34317;SDS011;20582;52.196;20.952;2023-05-14T07:45:08;10.88;;;5.60;;
34317;SDS011;20582;52.196;20.952;2023-05-14T07:47:34;11.90;;;5.60;;
34317;SDS011;20582;52.196;20.952;2023-05-14T07:50:00;12.18;;;5.38;;
34317;SDS011;20582;52.196;20.952;2023-05-14T07:52:27;9.38;;;4.90;;
34317;SDS011;20582;52.196;20.952;2023-05-14T07:54:53;10.45;;;5.20;;
34317;SDS011;20582;52.196;20.952;2023-05-14T07:57:19;9.88;;;4.85;;
34317;SDS011;20582;52.196;20.952;2023-05-14T07:59:46;11.05;;;4.45;;
34317;SDS011;20582;52.196;20.952;2023-05-14T08:02:12;13.43;;;5.45;;
34317;SDS011;20582;52.196;20.952;2023-05-14T08:04:39;12.10;;;5.18;;
34317;SDS011;20582;52.196;20.952;2023-05-14T08:07:05;9.38;;;4.55;;
34317;SDS011;20582;52.196;20.952;2023-05-14T08:09:32;12.15;;;4.90;;
34317;SDS011;20582;52.196;20.952;2023-05-14T08:11:58;9.50;;;4.50;;
34317;SDS011;20582;52.196;20.952;2023-05-14T08:14:24;7.93;;;4.50;;
34317;SDS011;20582;52.196;20.952;2023-05-14T08:16:51;9.65;;;4.38;;
34317;SDS011;20582;52.196;20.952;2023-05-14T08:19:17;9.55;;;4.40;;
34317;SDS011;20582;52.196;20.952;2023-05-14T08:21:43;9.52;;;4.53;;
34317;SDS011;20582;52.196;20.952;2023-05-14T08:24:09;11.02;;;4.57;;
34317;SDS011;20582;52.196;20.952;2023-05-14T08:26:35;12.07;;;4.65;;
34317;SDS011;20582;52.196;20.952;2023-05-14T08:29:02;9.20;;;4.25;;
34317;SDS011;20582;52.196;20.952;2023-05-14T08:31:28;12.93;;;4.20;;
34317;SDS011;20582;52.196;20.952;2023-05-14T08:33:54;9.32;;;4.40;;
34317;SDS011;20582;52.196;20.952;2023-05-14T08:36:20;13.07;;;4.30;;
34317;SDS011;20582;52.196;20.952;2023-05-14T08:38:46;8.65;;;4.20;;
34317;SDS011;20582;52.196;20.952;2023-05-14T08:41:14;11.75;;;4.22;;
34317;SDS011;20582;52.196;20.952;2023-05-14T08:43:44;11.70;;;4.03;;
34317;SDS011;20582;52.196;20.952;2023-05-14T08:46:12;9.30;;;3.50;;
34317;SDS011;20582;52.196;20.952;2023-05-14T08:48:39;8.35;;;4.00;;
34317;SDS011;20582;52.196;20.952;2023-05-14T08:51:07;8.52;;;3.90;;
34317;SDS011;20582;52.196;20.952;2023-05-14T08:53:33;7.90;;;3.65;;
34317;SDS011;20582;52.196;20.952;2023-05-14T08:56:00;9.48;;;4.20;;
34317;SDS011;20582;52.196;20.952;2023-05-14T08:58:26;7.43;;;3.67;;
34317;SDS011;20582;52.196;20.952;2023-05-14T09:00:53;7.43;;;3.78;;
34317;SDS011;20582;52.196;20.952;2023-05-14T09:03:19;7.10;;;3.65;;
34317;SDS011;20582;52.196;20.952;2023-05-14T09:05:46;6.88;;;3.50;;
34317;SDS011;20582;52.196;20.952;2023-05-14T09:08:13;8.20;;;3.50;;
34317;SDS011;20582;52.196;20.952;2023-05-14T09:10:41;6.07;;;3.30;;
34317;SDS011;20582;52.196;20.952;2023-05-14T09:13:07;7.10;;;3.45;;
34317;SDS011;20582;52.196;20.952;2023-05-14T09:15:35;5.63;;;3.50;;
34317;SDS011;20582;52.196;20.952;2023-05-14T09:18:05;9.45;;;3.90;;
34317;SDS011;20582;52.196;20.952;2023-05-14T09:20:31;6.88;;;4.20;;
34317;SDS011;20582;52.196;20.952;2023-05-14T09:22:57;7.15;;;3.60;;
34317;SDS011;20582;52.196;20.952;2023-05-14T09:25:26;7.13;;;3.70;;
34317;SDS011;20582;52.196;20.952;2023-05-14T09:27:56;7.43;;;3.60;;
34317;SDS011;20582;52.196;20.952;2023-05-14T09:30:22;7.45;;;3.70;;
34317;SDS011;20582;52.196;20.952;2023-05-14T09:32:49;8.98;;;3.42;;
34317;SDS011;20582;52.196;20.952;2023-05-14T09:35:21;7.47;;;3.50;;
34317;SDS011;20582;52.196;20.952;2023-05-14T09:37:51;6.20;;;3.42;;
34317;SDS011;20582;52.196;20.952;2023-05-14T09:40:17;8.23;;;3.90;;
34317;SDS011;20582;52.196;20.952;2023-05-14T09:42:44;8.93;;;3.47;;
34317;SDS011;20582;52.196;20.952;2023-05-14T09:45:10;8.27;;;3.60;;
34317;SDS011;20582;52.196;20.952;2023-05-14T09:47:37;6.13;;;3.50;;
34317;SDS011;20582;52.196;20.952;2023-05-14T09:50:03;9.77;;;3.40;;
34317;SDS011;20582;52.196;20.952;2023-05-14T09:52:30;7.75;;;3.20;;
34317;SDS011;20582;52.196;20.952;2023-05-14T09:54:56;7.00;;;3.67;;
34317;SDS011;20582;52.196;20.952;2023-05-14T09:57:22;9.23;;;3.28;;
34317;SDS011;20582;52.196;20.952;2023-05-14T09:59:48;10.43;;;3.15;;
34317;SDS011;20582;52.196;20.952;2023-05-14T10:02:24;7.90;;;3.08;;
34317;SDS011;20582;52.196;20.952;2023-05-14T10:04:54;8.23;;;3.75;;
34317;SDS011;20582;52.196;20.952;2023-05-14T10:07:25;9.18;;;4.18;;
34317;SDS011;20582;52.196;20.952;2023-05-14T10:09:53;7.75;;;3.60;;
34317;SDS011;20582;52.196;20.952;2023-05-14T10:12:21;7.25;;;3.33;;
34317;SDS011;20582;52.196;20.952;2023-05-14T10:14:47;6.15;;;3.28;;
34317;SDS011;20582;52.196;20.952;2023-05-14T10:17:18;6.65;;;3.25;;
34317;SDS011;20582;52.196;20.952;2023-05-14T10:19:46;7.70;;;3.20;;
34317;SDS011;20582;52.196;20.952;2023-05-14T10:22:13;8.63;;;3.15;;
34317;SDS011;20582;52.196;20.952;2023-05-14T10:24:40;7.53;;;3.58;;
34317;SDS011;20582;52.196;20.952;2023-05-14T10:27:06;6.90;;;3.58;;
34317;SDS011;20582;52.196;20.952;2023-05-14T10:29:32;7.13;;;3.75;;
34317;SDS011;20582;52.196;20.952;2023-05-14T10:31:59;6.30;;;3.40;;
34317;SDS011;20582;52.196;20.952;2023-05-14T10:37:00;8.63;;;3.47;;
34317;SDS011;20582;52.196;20.952;2023-05-14T10:42:05;7.28;;;3.53;;
34317;SDS011;20582;52.196;20.952;2023-05-14T10:44:31;6.25;;;3.25;;
34317;SDS011;20582;52.196;20.952;2023-05-14T10:47:00;6.82;;;3.47;;
34317;SDS011;20582;52.196;20.952;2023-05-14T10:49:26;7.47;;;3.67;;
34317;SDS011;20582;52.196;20.952;2023-05-14T10:51:52;7.82;;;3.65;;
34317;SDS011;20582;52.196;20.952;2023-05-14T10:54:18;8.07;;;3.40;;
34317;SDS011;20582;52.196;20.952;2023-05-14T10:56:45;7.22;;;3.80;;
34317;SDS011;20582;52.196;20.952;2023-05-14T10:59:11;6.03;;;3.35;;
34317;SDS011;20582;52.196;20.952;2023-05-14T11:01:39;9.02;;;3.72;;
34317;SDS011;20582;52.196;20.952;2023-05-14T11:04:05;10.68;;;3.53;;
34317;SDS011;20582;52.196;20.952;2023-05-14T11:06:31;7.00;;;3.20;;
34317;SDS011;20582;52.196;20.952;2023-05-14T11:08:57;5.60;;;2.85;;
34317;SDS011;20582;52.196;20.952;2023-05-14T11:11:25;8.00;;;3.50;;
34317;SDS011;20582;52.196;20.952;2023-05-14T11:13:52;6.10;;;2.92;;
34317;SDS011;20582;52.196;20.952;2023-05-14T11:16:19;6.38;;;2.95;;
34317;SDS011;20582;52.196;20.952;2023-05-14T11:18:47;7.00;;;3.15;;
34317;SDS011;20582;52.196;20.952;2023-05-14T11:21:17;5.73;;;3.07;;
34317;SDS011;20582;52.196;20.952;2023-05-14T11:23:45;7.15;;;3.00;;
34317;SDS011;20582;52.196;20.952;2023-05-14T11:26:11;7.75;;;3.00;;
34317;SDS011;20582;52.196;20.952;2023-05-14T11:28:37;6.60;;;3.28;;
34317;SDS011;20582;52.196;20.952;2023-05-14T11:31:03;6.47;;;2.75;;
34317;SDS011;20582;52.196;20.952;2023-05-14T11:33:29;6.05;;;3.00;;
34317;SDS011;20582;52.196;20.952;2023-05-14T11:35:56;10.27;;;3.20;;
34317;SDS011;20582;52.196;20.952;2023-05-14T11:38:22;6.05;;;2.95;;
34317;SDS011;20582;52.196;20.952;2023-05-14T11:40:52;6.60;;;3.03;;
34317;SDS011;20582;52.196;20.952;2023-05-14T11:43:19;7.47;;;3.10;;
34317;SDS011;20582;52.196;20.952;2023-05-14T11:45:51;10.25;;;3.30;;
34317;SDS011;20582;52.196;20.952;2023-05-14T11:48:17;6.53;;;3.10;;
34317;SDS011;20582;52.196;20.952;2023-05-14T11:50:44;5.43;;;2.88;;
34317;SDS011;20582;52.196;20.952;2023-05-14T11:53:14;6.90;;;3.17;;
34317;SDS011;20582;52.196;20.952;2023-05-14T11:55:40;5.30;;;3.03;;
34317;SDS011;20582;52.196;20.952;2023-05-14T11:58:06;5.38;;;3.17;;
34317;SDS011;20582;52.196;20.952;2023-05-14T12:00:33;6.20;;;3.17;;
34317;SDS011;20582;52.196;20.952;2023-05-14T12:02:59;6.90;;;3.03;;
34317;SDS011;20582;52.196;20.952;2023-05-14T12:05:25;6.13;;;3.20;;
34317;SDS011;20582;52.196;20.952;2023-05-14T12:07:51;5.95;;;2.85;;
34317;SDS011;20582;52.196;20.952;2023-05-14T12:10:18;7.20;;;2.92;;
34317;SDS011;20582;52.196;20.952;2023-05-14T12:12:45;5.93;;;2.92;;
34317;SDS011;20582;52.196;20.952;2023-05-14T12:15:12;9.77;;;3.20;;
34317;SDS011;20582;52.196;20.952;2023-05-14T12:17:38;6.82;;;3.17;;
34317;SDS011;20582;52.196;20.952;2023-05-14T12:20:07;9.07;;;3.10;;
34317;SDS011;20582;52.196;20.952;2023-05-14T12:22:35;6.60;;;3.10;;
34317;SDS011;20582;52.196;20.952;2023-05-14T12:25:01;8.98;;;3.08;;
34317;SDS011;20582;52.196;20.952;2023-05-14T12:27:28;6.65;;;3.20;;
34317;SDS011;20582;52.196;20.952;2023-05-14T12:30:00;6.20;;;3.05;;
34317;SDS011;20582;52.196;20.952;2023-05-14T12:32:27;8.32;;;3.03;;
34317;SDS011;20582;52.196;20.952;2023-05-14T12:34:55;6.13;;;3.03;;
34317;SDS011;20582;52.196;20.952;2023-05-14T12:37:21;7.20;;;3.10;;
34317;SDS011;20582;52.196;20.952;2023-05-14T12:39:47;6.75;;;3.20;;
34317;SDS011;20582;52.196;20.952;2023-05-14T12:42:14;7.82;;;3.10;;
34317;SDS011;20582;52.196;20.952;2023-05-14T12:44:40;7.68;;;2.90;;
34317;SDS011;20582;52.196;20.952;2023-05-14T12:47:06;5.13;;;2.72;;
34317;SDS011;20582;52.196;20.952;2023-05-14T12:49:32;4.72;;;2.80;;
34317;SDS011;20582;52.196;20.952;2023-05-14T12:51:58;5.68;;;3.00;;
34317;SDS011;20582;52.196;20.952;2023-05-14T12:54:24;5.75;;;2.78;;
34317;SDS011;20582;52.196;20.952;2023-05-14T12:56:51;7.60;;;2.90;;
34317;SDS011;20582;52.196;20.952;2023-05-14T12:59:17;5.80;;;2.83;;
34317;SDS011;20582;52.196;20.952;2023-05-14T13:01:43;7.10;;;3.53;;
34317;SDS011;20582;52.196;20.952;2023-05-14T13:04:09;7.95;;;4.47;;
34317;SDS011;20582;52.196;20.952;2023-05-14T13:06:38;8.00;;;3.38;;
34317;SDS011;20582;52.196;20.952;2023-05-14T13:09:05;5.30;;;3.00;;
34317;SDS011;20582;52.196;20.952;2023-05-14T13:11:31;5.13;;;3.00;;
34317;SDS011;20582;52.196;20.952;2023-05-14T13:13:57;7.63;;;3.40;;
34317;SDS011;20582;52.196;20.952;2023-05-14T13:16:27;12.30;;;3.15;;
34317;SDS011;20582;52.196;20.952;2023-05-14T13:18:53;4.72;;;2.70;;
34317;SDS011;20582;52.196;20.952;2023-05-14T13:21:19;10.35;;;3.00;;
34317;SDS011;20582;52.196;20.952;2023-05-14T13:23:46;7.60;;;2.92;;
34317;SDS011;20582;52.196;20.952;2023-05-14T13:26:12;6.40;;;2.90;;
34317;SDS011;20582;52.196;20.952;2023-05-14T13:28:38;6.43;;;3.13;;
34317;SDS011;20582;52.196;20.952;2023-05-14T13:33:31;6.70;;;2.83;;
34317;SDS011;20582;52.196;20.952;2023-05-14T13:35:57;6.90;;;3.10;;
34317;SDS011;20582;52.196;20.952;2023-05-14T13:38:23;7.95;;;3.08;;
34317;SDS011;20582;52.196;20.952;2023-05-14T13:40:49;8.13;;;3.15;;
34317;SDS011;20582;52.196;20.952;2023-05-14T13:43:15;9.82;;;3.28;;
34317;SDS011;20582;52.196;20.952;2023-05-14T13:45:41;8.18;;;3.10;;
34317;SDS011;20582;52.196;20.952;2023-05-14T13:48:07;6.97;;;2.90;;
34317;SDS011;20582;52.196;20.952;2023-05-14T13:50:33;7.00;;;3.38;;
34317;SDS011;20582;52.196;20.952;2023-05-14T13:52:59;9.70;;;3.30;;
34317;SDS011;20582;52.196;20.952;2023-05-14T13:55:25;6.40;;;3.17;;
34317;SDS011;20582;52.196;20.952;2023-05-14T13:57:51;7.68;;;3.72;;
34317;SDS011;20582;52.196;20.952;2023-05-14T14:00:17;7.75;;;3.22;;
34317;SDS011;20582;52.196;20.952;2023-05-14T14:02:43;8.50;;;2.97;;
34317;SDS011;20582;52.196;20.952;2023-05-14T14:05:09;7.57;;;2.92;;
34317;SDS011;20582;52.196;20.952;2023-05-14T14:07:35;5.13;;;2.80;;
34317;SDS011;20582;52.196;20.952;2023-05-14T14:10:02;7.45;;;2.95;;
34317;SDS011;20582;52.196;20.952;2023-05-14T14:12:28;6.65;;;3.35;;
34317;SDS011;20582;52.196;20.952;2023-05-14T14:14:55;10.00;;;3.05;;
34317;SDS011;20582;52.196;20.952;2023-05-14T14:17:21;7.28;;;3.30;;
34317;SDS011;20582;52.196;20.952;2023-05-14T14:19:47;5.63;;;3.08;;
34317;SDS011;20582;52.196;20.952;2023-05-14T14:22:13;7.00;;;3.00;;
34317;SDS011;20582;52.196;20.952;2023-05-14T14:24:41;5.40;;;3.10;;
34317;SDS011;20582;52.196;20.952;2023-05-14T14:27:07;8.02;;;3.67;;
34317;SDS011;20582;52.196;20.952;2023-05-14T14:29:33;8.52;;;3.45;;
34317;SDS011;20582;52.196;20.952;2023-05-14T14:32:00;7.95;;;3.17;;
34317;SDS011;20582;52.196;20.952;2023-05-14T14:34:26;8.98;;;3.42;;
34317;SDS011;20582;52.196;20.952;2023-05-14T14:36:52;7.13;;;3.17;;